createdAt,value
2022-10-10T00:00:48.494Z,100820.13
2022-10-10T00:01:50.749Z,100818.44
2022-10-10T00:02:53.214Z,100819.31
2022-10-10T00:03:56.040Z,100816.56
2022-10-10T00:05:01.297Z,100815.69
2022-10-10T00:06:03.930Z,100812.13
2022-10-10T00:07:06.324Z,100822.28
2022-10-10T00:08:08.841Z,100815.69
2022-10-10T00:09:11.053Z,100814.03
2022-10-10T00:10:13.281Z,100814.88
2022-10-10T00:11:17.096Z,100812.94
2022-10-10T00:12:19.393Z,100809.38
2022-10-10T00:13:21.981Z,100808.75
2022-10-10T00:14:24.184Z,100803.03
2022-10-10T00:15:26.881Z,100808.31
2022-10-10T00:16:29.145Z,100807.69
2022-10-10T00:17:31.579Z,100807.69
2022-10-10T00:18:34.410Z,100799.44
2022-10-10T00:19:36.707Z,100791.44
2022-10-10T00:20:38.988Z,100793.13
2022-10-10T00:21:41.316Z,100793.13
2022-10-10T00:22:43.917Z,100803.25
2022-10-10T00:23:46.212Z,100798.59
2022-10-10T00:24:50.976Z,100792.25
2022-10-10T00:25:53.701Z,100796.69
2022-10-10T00:26:55.928Z,100792.25
2022-10-10T00:28:02.754Z,100793.13
2022-10-10T00:29:07.495Z,100791.66
2022-10-10T00:30:11.153Z,100788.91
2022-10-10T00:31:13.722Z,100795.22
2022-10-10T00:32:15.908Z,100787.22
2022-10-10T00:33:18.224Z,100783.41
2022-10-10T00:34:26.605Z,100787.22
2022-10-10T00:35:29.187Z,100783.41
2022-10-10T00:36:31.496Z,100786.16
2022-10-10T00:37:33.684Z,100781.72
2022-10-10T00:38:35.958Z,100787.22
2022-10-10T00:39:41.206Z,100786.41
2022-10-10T00:40:52.390Z,100783.41
2022-10-10T00:41:54.611Z,100775.59
2022-10-10T00:42:56.895Z,100775.59
2022-10-10T00:44:14.632Z,100772.66
2022-10-10T00:45:28.429Z,100772.66
2022-10-10T00:46:31.132Z,100774.53
2022-10-10T00:47:34.521Z,100774.53
2022-10-10T00:48:43.633Z,100771.78
2022-10-10T00:49:45.861Z,100771.56
2022-10-10T00:50:57.475Z,100768.00
2022-10-10T00:52:00.454Z,100772.84
2022-10-10T00:53:08.238Z,100764.41
2022-10-10T00:54:12.956Z,100775.41
2022-10-10T00:55:15.910Z,100770.72
2022-10-10T00:56:21.742Z,100776.22
2022-10-10T00:57:24.012Z,100768.81
2022-10-10T00:58:26.540Z,100770.50
2022-10-10T00:59:33.164Z,100772.41
2022-10-10T01:00:35.469Z,100779.81
2022-10-10T01:01:38.892Z,100763.31
2022-10-10T01:02:41.229Z,100765.25
2022-10-10T01:03:43.713Z,100772.41
2022-10-10T01:04:45.965Z,100769.69
2022-10-10T01:05:50.097Z,100774.94
2022-10-10T01:06:59.699Z,100769.44
2022-10-10T01:08:06.664Z,100765.63
2022-10-10T01:09:08.839Z,100765.41
2022-10-10T01:10:20.391Z,100773.63
2022-10-10T01:11:44.963Z,100763.47
2022-10-10T01:13:07.506Z,100763.03
2022-10-10T01:14:24.559Z,100763.03
2022-10-10T01:15:54.033Z,100760.03
2022-10-10T01:17:06.217Z,100751.81
2022-10-10T01:18:24.533Z,100749.88
2022-10-10T01:19:38.664Z,100746.31
2022-10-10T01:21:02.685Z,100754.31
2022-10-10T01:22:11.260Z,100746.06
2022-10-10T01:23:32.244Z,100746.06
2022-10-10T01:24:47.579Z,100746.91
2022-10-10T01:26:10.179Z,100737.59
2022-10-10T01:27:41.644Z,100743.31
2022-10-10T01:28:46.347Z,100742.50
2022-10-10T01:29:52.913Z,100740.56
2022-10-10T01:30:57.738Z,100746.91
2022-10-10T01:32:14.763Z,100741.41
2022-10-10T01:33:28.252Z,100740.56
2022-10-10T01:34:33.200Z,100737.81
2022-10-10T01:36:01.574Z,100736.75
2022-10-10T01:37:09.572Z,100735.91
2022-10-10T01:38:44.932Z,100734.00
2022-10-10T01:40:04.461Z,100734.84
2022-10-10T01:41:13.740Z,100734.84
2022-10-10T01:42:29.665Z,100729.34
2022-10-10T01:43:32.273Z,100732.09
2022-10-10T01:44:37.465Z,100729.34
2022-10-10T01:45:48.774Z,100725.53
2022-10-10T01:46:50.973Z,100723.84
2022-10-10T01:47:59.377Z,100731.03
2022-10-10T01:49:02.201Z,100724.72
2022-10-10T01:50:10.469Z,100719.22
2022-10-10T01:51:17.934Z,100722.78
2022-10-10T01:52:33.681Z,100717.28
2022-10-10T01:53:50.826Z,100718.09
2022-10-10T01:55:26.984Z,100726.34
2022-10-10T01:56:41.405Z,100725.28
2022-10-10T01:58:31.202Z,100720.66
2022-10-10T01:59:47.052Z,100720.19
2022-10-10T02:01:07.648Z,100724.00
2022-10-10T02:02:38.667Z,100714.06
2022-10-10T02:03:46.837Z,100714.91
2022-10-10T02:04:56.998Z,100704.16
2022-10-10T02:06:25.834Z,100701.41
2022-10-10T02:07:35.560Z,100703.91
2022-10-10T02:08:43.596Z,100703.91
2022-10-10T02:09:46.865Z,100700.31
2022-10-10T02:10:53.347Z,100696.75
2022-10-10T02:11:58.289Z,100694.63
2022-10-10T02:13:02.829Z,100690.19
2022-10-10T02:14:29.133Z,100683.00
2022-10-10T02:15:40.497Z,100692.94
2022-10-10T02:16:49.452Z,100691.00
2022-10-10T02:17:52.421Z,100687.81
2022-10-10T02:18:57.892Z,100695.19
2022-10-10T02:20:00.672Z,100686.72
2022-10-10T02:21:06.529Z,100691.38
2022-10-10T02:22:10.742Z,100692.22
2022-10-10T02:23:16.909Z,100681.22
2022-10-10T02:24:22.523Z,100686.50
2022-10-10T02:25:29.467Z,100683.75
2022-10-10T02:26:32.365Z,100680.78
2022-10-10T02:27:49.024Z,100683.53
2022-10-10T02:29:04.428Z,100679.72
2022-10-10T02:30:07.347Z,100677.78
2022-10-10T02:31:14.733Z,100680.28
2022-10-10T02:32:26.270Z,100678.59
2022-10-10T02:33:52.944Z,100668.47
2022-10-10T02:35:00.651Z,100673.13
2022-10-10T02:36:04.178Z,100672.91
2022-10-10T02:37:12.658Z,100674.78
2022-10-10T02:38:16.070Z,100667.63
2022-10-10T02:39:22.210Z,100662.97
2022-10-10T02:40:29.081Z,100662.97
2022-10-10T02:41:33.395Z,100670.38
2022-10-10T02:42:37.093Z,100667.63
2022-10-10T02:43:39.680Z,100660.22
2022-10-10T02:44:42.556Z,100661.06
2022-10-10T02:45:44.919Z,100654.47
2022-10-10T02:46:47.133Z,100662.13
2022-10-10T02:47:50.975Z,100657.47
2022-10-10T02:48:53.204Z,100662.13
2022-10-10T02:49:55.386Z,100657.22
2022-10-10T02:51:00.364Z,100655.31
2022-10-10T02:52:04.865Z,100653.41
2022-10-10T02:53:07.154Z,100651.50
2022-10-10T02:54:09.537Z,100653.19
2022-10-10T02:55:11.839Z,100648.50
2022-10-10T02:56:14.481Z,100642.19
2022-10-10T02:57:16.687Z,100646.63
2022-10-10T02:58:19.277Z,100652.69
2022-10-10T02:59:21.512Z,100644.44
2022-10-10T03:00:23.714Z,100657.38
2022-10-10T03:01:26.019Z,100651.41
2022-10-10T03:02:28.379Z,100651.41
2022-10-10T03:03:30.590Z,100656.44
2022-10-10T03:04:32.844Z,100647.34
2022-10-10T03:05:35.037Z,100645.44
2022-10-10T03:06:37.252Z,100643.28
2022-10-10T03:07:39.611Z,100644.97
2022-10-10T03:08:41.921Z,100646.03
2022-10-10T03:09:44.207Z,100649.41
2022-10-10T03:11:00.768Z,100646.66
2022-10-10T03:12:03.637Z,100646.41
2022-10-10T03:13:05.869Z,100644.50
2022-10-10T03:14:08.115Z,100636.22
2022-10-10T03:15:11.827Z,100634.34
2022-10-10T03:16:14.409Z,100636.03
2022-10-10T03:17:16.751Z,100634.72
2022-10-10T03:18:19.929Z,100632.19
2022-10-10T03:19:22.091Z,100631.34
2022-10-10T03:20:24.762Z,100633.84
2022-10-10T03:21:26.968Z,100635.78
2022-10-10T03:22:29.428Z,100634.72
2022-10-10T03:23:33.053Z,100630.88
2022-10-10T03:24:35.289Z,100629.81
2022-10-10T03:25:41.320Z,100628.72
2022-10-10T03:26:43.923Z,100624.91
2022-10-10T03:27:46.169Z,100624.91
2022-10-10T03:28:48.417Z,100623.59
2022-10-10T03:29:50.602Z,100618.09
2022-10-10T03:30:52.838Z,100613.44
2022-10-10T03:31:55.001Z,100608.75
2022-10-10T03:32:57.216Z,100615.13
2022-10-10T03:33:59.563Z,100613.19
2022-10-10T03:35:01.715Z,100615.69
2022-10-10T03:36:04.596Z,100608.31
2022-10-10T03:37:07.000Z,100613.56
2022-10-10T03:38:11.431Z,100618.81
2022-10-10T03:39:13.667Z,100612.25
2022-10-10T03:40:15.900Z,100611.19
2022-10-10T03:41:18.098Z,100609.00
2022-10-10T03:42:20.320Z,100607.69
2022-10-10T03:43:22.519Z,100608.81
2022-10-10T03:44:24.803Z,100607.69
2022-10-10T03:45:27.033Z,100600.31
2022-10-10T03:46:29.287Z,100606.63
2022-10-10T03:47:31.437Z,100596.47
2022-10-10T03:48:33.642Z,100600.06
2022-10-10T03:49:35.805Z,100595.38
2022-10-10T03:50:38.178Z,100602.56
2022-10-10T03:51:40.408Z,100602.31
2022-10-10T03:52:42.591Z,100601.25
2022-10-10T03:53:44.935Z,100595.50
2022-10-10T03:54:47.112Z,100593.63
2022-10-10T03:55:49.448Z,100590.63
2022-10-10T03:56:51.642Z,100595.88
2022-10-10T03:57:53.929Z,100589.53
2022-10-10T03:59:02.903Z,100585.13
2022-10-10T04:00:05.922Z,100589.31
2022-10-10T04:01:08.449Z,100587.38
2022-10-10T04:02:10.674Z,100578.28
2022-10-10T04:03:12.898Z,100582.94
2022-10-10T04:04:15.390Z,100586.56
2022-10-10T04:05:17.666Z,100578.28
2022-10-10T04:06:20.007Z,100580.81
2022-10-10T04:07:22.201Z,100583.31
2022-10-10T04:08:24.839Z,100586.06
2022-10-10T04:09:29.814Z,100577.81
2022-10-10T04:10:34.943Z,100583.31
2022-10-10T04:11:38.865Z,100572.31
2022-10-10T04:12:41.057Z,100580.31
2022-10-10T04:13:43.329Z,100577.56
2022-10-10T04:14:45.588Z,100563.81
2022-10-10T04:15:51.877Z,100561.06
2022-10-10T04:16:54.293Z,100569.09
2022-10-10T04:17:56.494Z,100568.25
2022-10-10T04:18:58.668Z,100568.47
2022-10-10T04:20:03.372Z,100565.72
2022-10-10T04:21:09.743Z,100560.22
2022-10-10T04:22:12.022Z,100568.47
2022-10-10T04:23:14.390Z,100559.16
2022-10-10T04:24:16.627Z,100561.28
2022-10-10T04:25:18.924Z,100571.22
2022-10-10T04:26:21.168Z,100568.72
2022-10-10T04:27:23.456Z,100562.38
2022-10-10T04:28:25.837Z,100566.78
2022-10-10T04:29:28.208Z,100570.63
2022-10-10T04:30:33.539Z,100563.47
2022-10-10T04:31:35.837Z,100559.03
2022-10-10T04:32:38.183Z,100549.72
2022-10-10T04:33:40.414Z,100549.91
2022-10-10T04:34:42.683Z,100556.28
2022-10-10T04:35:47.957Z,100556.28
2022-10-10T04:36:50.137Z,100547.16
2022-10-10T04:37:53.555Z,100558.19
2022-10-10T04:38:55.742Z,100560.09
2022-10-10T04:39:58.001Z,100544.66
2022-10-10T04:41:00.191Z,100547.41
2022-10-10T04:42:05.009Z,100549.34
2022-10-10T04:43:07.248Z,100546.59
2022-10-10T04:44:09.426Z,100551.25
2022-10-10T04:45:11.721Z,100541.34
2022-10-10T04:46:13.925Z,100549.59
2022-10-10T04:47:16.120Z,100548.72
2022-10-10T04:48:18.312Z,100547.91
2022-10-10T04:49:20.566Z,100552.56
2022-10-10T04:50:24.053Z,100550.03
2022-10-10T04:51:28.544Z,100544.53
2022-10-10T04:52:30.811Z,100536.53
2022-10-10T04:53:36.188Z,100536.53
2022-10-10T04:54:38.392Z,100537.84
2022-10-10T04:55:41.466Z,100538.72
2022-10-10T04:56:43.683Z,100537.84
2022-10-10T04:57:45.915Z,100540.84
2022-10-10T04:58:48.134Z,100538.09
2022-10-10T04:59:53.413Z,100537.28
2022-10-10T05:00:56.304Z,100540.03
2022-10-10T05:02:01.673Z,100528.41
2022-10-10T05:03:04.518Z,100538.59
2022-10-10T05:04:08.524Z,100541.34
2022-10-10T05:05:10.751Z,100535.84
2022-10-10T05:06:13.599Z,100531.66
2022-10-10T05:07:15.794Z,100536.53
2022-10-10T05:08:18.435Z,100543.72
2022-10-10T05:09:28.389Z,100531.84
2022-10-10T05:10:40.340Z,100531.84
2022-10-10T05:11:42.513Z,100531.28
2022-10-10T05:12:44.717Z,100523.28
2022-10-10T05:13:47.230Z,100529.84
2022-10-10T05:14:49.426Z,100523.47
2022-10-10T05:15:52.693Z,100522.66
2022-10-10T05:16:54.911Z,100526.22
2022-10-10T05:17:57.082Z,100522.66
2022-10-10T05:18:59.321Z,100524.78
2022-10-10T05:20:01.555Z,100522.91
2022-10-10T05:21:04.158Z,100516.53
2022-10-10T05:22:06.470Z,100518.47
2022-10-10T05:23:08.650Z,100514.91
2022-10-10T05:24:10.903Z,100517.03
2022-10-10T05:25:13.284Z,100511.53
2022-10-10T05:26:15.730Z,100514.28
2022-10-10T05:27:17.997Z,100513.47
2022-10-10T05:28:20.209Z,100515.34
2022-10-10T05:29:22.470Z,100513.69
2022-10-10T05:30:24.740Z,100510.94
2022-10-10T05:31:26.919Z,100513.91
2022-10-10T05:32:29.098Z,100513.09
2022-10-10T05:33:34.630Z,100513.09
2022-10-10T05:34:36.867Z,100515.03
2022-10-10T05:35:39.080Z,100519.19
2022-10-10T05:36:42.409Z,100515.84
2022-10-10T05:37:44.641Z,100513.91
2022-10-10T05:38:46.843Z,100513.34
2022-10-10T05:39:53.728Z,100515.03
2022-10-10T05:40:56.804Z,100505.91
2022-10-10T05:41:58.994Z,100506.16
2022-10-10T05:43:04.476Z,100514.16
2022-10-10T05:44:06.656Z,100514.16
2022-10-10T05:45:09.533Z,100516.66
2022-10-10T05:46:11.706Z,100513.09
2022-10-10T05:47:14.928Z,100508.41
2022-10-10T05:48:17.328Z,100520.28
2022-10-10T05:49:19.881Z,100511.16
2022-10-10T05:50:34.096Z,100507.34
2022-10-10T05:51:36.476Z,100506.28
2022-10-10T05:52:38.662Z,100514.53
2022-10-10T05:53:40.960Z,100505.22
2022-10-10T05:54:46.276Z,100501.59
2022-10-10T05:55:48.985Z,100508.53
2022-10-10T05:56:51.183Z,100512.34
2022-10-10T05:57:53.532Z,100514.91
2022-10-10T05:58:55.720Z,100515.72
2022-10-10T05:59:57.936Z,100505.53
2022-10-10T06:01:06.435Z,100507.22
2022-10-10T06:02:08.784Z,100508.91
2022-10-10T06:03:14.230Z,100503.41
2022-10-10T06:04:16.881Z,100512.47
2022-10-10T06:05:19.078Z,100514.16
2022-10-10T06:06:21.694Z,100511.41
2022-10-10T06:07:23.891Z,100509.53
2022-10-10T06:08:26.351Z,100511.16
2022-10-10T06:09:28.563Z,100510.09
2022-10-10T06:10:33.626Z,100512.59
2022-10-10T06:11:35.782Z,100514.28
2022-10-10T06:12:38.157Z,100510.47
2022-10-10T06:13:40.401Z,100508.31
2022-10-10T06:14:42.569Z,100515.25
2022-10-10T06:15:45.178Z,100518.84
2022-10-10T06:16:47.337Z,100509.28
2022-10-10T06:17:49.517Z,100524.72
2022-10-10T06:18:52.045Z,100523.38
2022-10-10T06:19:54.267Z,100514.03
2022-10-10T06:21:01.895Z,100512.13
2022-10-10T06:22:04.121Z,100515.25
2022-10-10T06:23:08.400Z,100524.94
2022-10-10T06:24:10.995Z,100517.03
2022-10-10T06:25:35.453Z,100511.31
2022-10-10T06:26:35.462Z,100517.13
2022-10-10T06:27:37.997Z,100507.56
2022-10-10T06:28:40.213Z,100517.25
2022-10-10T06:29:42.448Z,100513.19
2022-10-10T06:30:45.077Z,100513.53
2022-10-10T06:31:47.233Z,100517.47
2022-10-10T06:32:52.486Z,100517.00
2022-10-10T06:33:56.906Z,100519.28
2022-10-10T06:34:59.150Z,100520.44
2022-10-10T06:36:05.497Z,100523.56
2022-10-10T06:37:08.624Z,100523.06
2022-10-10T06:38:11.624Z,100522.59
2022-10-10T06:39:13.852Z,100528.22
2022-10-10T06:40:18.657Z,100525.78
2022-10-10T06:41:20.890Z,100528.91
2022-10-10T06:42:23.223Z,100527.34
2022-10-10T06:43:33.206Z,100527.47
2022-10-10T06:44:35.466Z,100531.66
2022-10-10T06:45:47.418Z,100524.34
2022-10-10T06:46:49.663Z,100533.78
2022-10-10T06:47:54.431Z,100527.75
2022-10-10T06:48:56.684Z,100529.78
2022-10-10T06:49:59.018Z,100525.47
2022-10-10T06:51:04.487Z,100529.41
2022-10-10T06:52:06.762Z,100532.50
2022-10-10T06:53:09.259Z,100524.81
2022-10-10T06:54:12.246Z,100529.59
2022-10-10T06:55:14.495Z,100536.53
2022-10-10T06:56:27.128Z,100529.69
2022-10-10T06:57:29.982Z,100528.91
2022-10-10T06:58:33.339Z,100532.03
2022-10-10T06:59:35.547Z,100530.69
2022-10-10T07:00:37.855Z,100533.81
2022-10-10T07:01:40.171Z,100537.16
2022-10-10T07:02:42.791Z,100531.13
2022-10-10T07:03:45.076Z,100535.31
2022-10-10T07:04:47.312Z,100534.81
2022-10-10T07:05:59.476Z,100540.06
2022-10-10T07:07:01.697Z,100528.81
2022-10-10T07:08:03.915Z,100536.56
2022-10-10T07:09:08.716Z,100535.50
2022-10-10T07:10:15.390Z,100533.31
2022-10-10T07:11:17.740Z,100539.44
2022-10-10T07:12:23.017Z,100534.50
2022-10-10T07:13:27.424Z,100546.09
2022-10-10T07:14:29.630Z,100542.84
2022-10-10T07:15:31.823Z,100540.06
2022-10-10T07:16:34.803Z,100537.91
2022-10-10T07:17:37.083Z,100545.13
2022-10-10T07:18:39.312Z,100545.94
2022-10-10T07:19:41.497Z,100547.38
2022-10-10T07:20:43.950Z,100549.03
2022-10-10T07:21:46.940Z,100542.44
2022-10-10T07:22:49.478Z,100543.88
2022-10-10T07:23:55.023Z,100547.19
2022-10-10T07:24:57.284Z,100553.31
2022-10-10T07:26:08.184Z,100553.06
2022-10-10T07:27:10.360Z,100548.38
2022-10-10T07:28:12.867Z,100544.50
2022-10-10T07:29:15.176Z,100552.56
2022-10-10T07:30:17.644Z,100544.03
2022-10-10T07:31:19.980Z,100548.44
2022-10-10T07:33:43.870Z,100552.41
2022-10-10T07:34:48.313Z,100553.81
2022-10-10T07:35:54.945Z,100541.66
2022-10-10T07:36:57.151Z,100550.53
2022-10-10T07:37:59.338Z,100546.44
2022-10-10T07:39:01.576Z,100542.84
2022-10-10T07:40:04.334Z,100553.38
2022-10-10T07:41:12.906Z,100551.22
2022-10-10T07:42:15.126Z,100557.31
2022-10-10T07:43:17.591Z,100556.22
2022-10-10T07:44:20.556Z,100548.50
2022-10-10T07:45:22.815Z,100555.44
2022-10-10T07:46:25.095Z,100543.09
2022-10-10T07:47:27.342Z,100539.25
2022-10-10T07:48:30.929Z,100542.59
2022-10-10T07:49:33.178Z,100544.84
2022-10-10T07:50:35.420Z,100546.84
2022-10-10T07:51:38.966Z,100543.00
2022-10-10T07:52:41.495Z,100541.66
2022-10-10T07:53:44.408Z,100546.66
2022-10-10T07:54:46.735Z,100548.09
2022-10-10T07:55:48.917Z,100542.03
2022-10-10T07:56:54.141Z,100543.47
2022-10-10T07:57:56.625Z,100550.13
2022-10-10T07:59:00.243Z,100540.78
2022-10-10T08:00:08.914Z,100539.16
2022-10-10T08:01:17.735Z,100542.25
2022-10-10T08:02:20.027Z,100543.69
2022-10-10T08:03:22.260Z,100547.31
2022-10-10T08:04:24.519Z,100539.38
2022-10-10T08:05:29.514Z,100543.28
2022-10-10T08:06:31.739Z,100536.19
2022-10-10T08:07:34.096Z,100547.78
2022-10-10T08:08:44.825Z,100545.09
2022-10-10T08:09:50.985Z,100539.88
2022-10-10T08:10:53.285Z,100540.22
2022-10-10T08:11:55.475Z,100542.44
2022-10-10T08:12:57.649Z,100547.22
2022-10-10T08:13:59.871Z,100549.44
2022-10-10T08:15:02.132Z,100543.38
2022-10-10T08:16:05.144Z,100544.53
2022-10-10T08:17:07.332Z,100544.84
2022-10-10T08:18:09.580Z,100544.34
2022-10-10T08:19:11.788Z,100547.19
2022-10-10T08:20:14.177Z,100546.06
2022-10-10T08:21:18.146Z,100543.63
2022-10-10T08:22:20.392Z,100540.91
2022-10-10T08:23:23.852Z,100542.03
2022-10-10T08:24:26.230Z,100542.63
2022-10-10T08:26:47.329Z,100544.69
2022-10-10T08:27:49.589Z,100544.19
2022-10-10T08:28:51.852Z,100538.09
2022-10-10T08:29:56.641Z,100542.00
2022-10-10T08:31:00.909Z,100540.66
2022-10-10T08:32:04.243Z,100545.41
2022-10-10T08:33:06.423Z,100541.00
2022-10-10T08:34:10.738Z,100541.31
2022-10-10T08:35:12.984Z,100545.50
2022-10-10T08:36:22.119Z,100544.41
2022-10-10T08:37:29.806Z,100546.41
2022-10-10T08:38:35.383Z,100540.09
2022-10-10T08:39:37.635Z,100545.66
2022-10-10T08:40:53.478Z,100548.44
2022-10-10T08:42:01.594Z,100540.44
2022-10-10T08:43:09.244Z,100538.00
2022-10-10T08:44:57.716Z,100544.13
2022-10-10T08:46:14.862Z,100543.06
2022-10-10T08:47:36.695Z,100538.66
2022-10-10T08:48:40.385Z,100536.75
2022-10-10T08:49:50.019Z,100531.53
2022-10-10T08:51:06.659Z,100532.66
2022-10-10T08:52:39.677Z,100531.81
2022-10-10T08:53:47.904Z,100525.50
2022-10-10T08:54:57.488Z,100534.94
2022-10-10T08:56:02.555Z,100528.59
2022-10-10T08:57:07.066Z,100533.34
2022-10-10T08:58:27.879Z,100535.31
2022-10-10T08:59:36.262Z,100530.03
2022-10-10T09:00:41.889Z,100527.56
2022-10-10T09:02:17.706Z,100537.00
2022-10-10T09:03:21.717Z,100528.69
2022-10-10T09:04:23.980Z,100526.22
2022-10-10T09:05:32.131Z,100529.28
2022-10-10T09:06:45.096Z,100526.81
2022-10-10T09:08:09.181Z,100528.47
2022-10-10T09:09:17.590Z,100531.53
2022-10-10T09:10:56.984Z,100528.78
2022-10-10T09:12:05.549Z,100536.31
2022-10-10T09:13:25.807Z,100531.88
2022-10-10T09:14:59.782Z,100533.81
2022-10-10T09:16:22.564Z,100533.56
2022-10-10T09:17:48.952Z,100529.94
2022-10-10T09:19:05.954Z,100526.38
2022-10-10T09:20:32.437Z,100535.53
2022-10-10T09:21:37.403Z,100531.06
2022-10-10T09:22:54.012Z,100525.53
2022-10-10T09:24:03.229Z,100523.88
2022-10-10T09:25:21.595Z,100529.69
2022-10-10T09:26:28.686Z,100532.47
2022-10-10T09:27:37.671Z,100526.38
2022-10-10T09:28:47.382Z,100535.56
2022-10-10T09:29:56.455Z,100531.94
2022-10-10T09:31:01.562Z,100529.47
2022-10-10T09:32:20.312Z,100527.50
2022-10-10T09:34:00.671Z,100521.41
2022-10-10T09:35:15.641Z,100519.44
2022-10-10T09:36:26.215Z,100523.03
2022-10-10T09:37:46.917Z,100528.84
2022-10-10T09:38:59.593Z,100517.75
2022-10-10T09:40:19.335Z,100525.78
2022-10-10T09:41:41.104Z,100516.03
2022-10-10T09:42:45.107Z,100512.13
2022-10-10T09:43:48.467Z,100512.94
2022-10-10T09:44:50.693Z,100509.03
2022-10-10T09:45:58.256Z,100511.22
2022-10-10T09:47:00.759Z,100507.00
2022-10-10T09:48:03.708Z,100512.56
2022-10-10T09:49:06.826Z,100503.94
2022-10-10T09:50:13.753Z,100506.41
2022-10-10T09:51:18.420Z,100509.69
2022-10-10T09:52:25.708Z,100514.13
2022-10-10T09:53:27.999Z,100512.13
2022-10-10T09:54:30.501Z,100514.59
2022-10-10T09:55:39.511Z,100517.06
2022-10-10T09:56:48.148Z,100508.41
2022-10-10T09:57:53.615Z,100513.66
2022-10-10T09:58:57.049Z,100514.13
2022-10-10T10:00:03.711Z,100508.25
2022-10-10T10:01:20.939Z,100505.97
2022-10-10T10:02:28.061Z,100504.50
2022-10-10T10:03:30.259Z,100500.84
2022-10-10T10:04:33.474Z,100497.78
2022-10-10T10:05:35.996Z,100497.72
2022-10-10T10:06:39.383Z,100492.13
2022-10-10T10:07:48.375Z,100496.50
2022-10-10T10:08:53.186Z,100501.50
2022-10-10T10:10:11.305Z,100496.13
2022-10-10T10:11:33.653Z,100498.06
2022-10-10T10:12:42.687Z,100492.75
2022-10-10T10:13:45.025Z,100501.63
2022-10-10T10:14:47.367Z,100502.97
2022-10-10T10:15:55.222Z,100498.25
2022-10-10T10:17:08.517Z,100512.41
2022-10-10T10:18:13.598Z,100502.09
2022-10-10T10:19:36.916Z,100501.81
2022-10-10T10:20:45.489Z,100501.50
2022-10-10T10:21:51.486Z,100502.63
2022-10-10T10:22:53.779Z,100505.16
2022-10-10T10:24:19.382Z,100505.16
2022-10-10T10:25:56.920Z,100511.53
2022-10-10T10:27:10.912Z,100505.16
2022-10-10T10:28:26.041Z,100501.81
2022-10-10T10:29:32.283Z,100501.50
2022-10-10T10:30:34.511Z,100501.50
2022-10-10T10:31:48.770Z,100506.25
2022-10-10T10:33:02.858Z,100510.41
2022-10-10T10:34:20.288Z,100508.16
2022-10-10T10:35:50.099Z,100501.16
2022-10-10T10:37:21.435Z,100493.34
2022-10-10T10:38:24.435Z,100499.47
2022-10-10T10:39:44.142Z,100498.00
2022-10-10T10:41:25.477Z,100489.88
2022-10-10T10:42:49.257Z,100489.31
2022-10-10T10:44:00.439Z,100487.03
2022-10-10T10:45:29.054Z,100484.81
2022-10-10T10:46:47.617Z,100482.25
2022-10-10T10:48:22.288Z,100484.75
2022-10-10T10:49:57.711Z,100485.81
2022-10-10T10:51:18.256Z,100483.56
2022-10-10T10:52:20.494Z,100478.50
2022-10-10T10:53:53.997Z,100472.91
2022-10-10T10:55:35.799Z,100473.97
2022-10-10T10:57:40.521Z,100480.63
2022-10-10T10:59:24.131Z,100468.91
2022-10-10T11:00:25.977Z,100459.41
2022-10-10T11:01:56.070Z,100469.41
2022-10-10T11:05:20.537Z,100466.88
2022-10-10T11:05:31.038Z,100454.06
2022-10-10T11:06:59.997Z,100462.97
2022-10-10T11:08:25.386Z,100457.94
2022-10-10T11:09:50.219Z,100451.50
2022-10-10T11:11:13.176Z,100455.94
2022-10-10T11:12:24.373Z,100447.28
2022-10-10T11:13:43.947Z,100444.50
2022-10-10T11:14:56.284Z,100448.09
2022-10-10T11:16:13.560Z,100444.19
2022-10-10T11:17:37.152Z,100447.81
2022-10-10T11:19:04.587Z,100443.06
2022-10-10T11:20:36.111Z,100439.16
2022-10-10T11:21:44.288Z,100441.94
2022-10-10T11:22:54.015Z,100437.16
2022-10-10T11:24:09.408Z,100440.50
2022-10-10T11:25:23.901Z,100433.81
2022-10-10T11:26:39.293Z,100437.09
2022-10-10T11:28:22.292Z,100434.31
2022-10-10T11:29:32.970Z,100434.84
2022-10-10T11:30:44.870Z,100433.72
2022-10-10T11:32:13.078Z,100441.78
2022-10-10T11:33:22.673Z,100433.41
2022-10-10T11:34:31.875Z,100429.19
2022-10-10T11:35:45.634Z,100432.81
2022-10-10T11:36:48.980Z,100441.72
2022-10-10T11:38:16.596Z,100440.59
2022-10-10T11:39:24.697Z,100433.53
2022-10-10T11:40:45.658Z,100440.78
2022-10-10T11:42:06.670Z,100439.34
2022-10-10T11:43:19.075Z,100437.94
2022-10-10T11:44:36.776Z,100434.00
2022-10-10T11:45:53.598Z,100432.03
2022-10-10T11:47:06.808Z,100435.38
2022-10-10T11:48:52.482Z,100437.84
2022-10-10T11:50:06.142Z,100427.53
2022-10-10T11:51:23.279Z,100423.59
2022-10-10T11:52:33.910Z,100431.13
2022-10-10T11:53:42.185Z,100426.38
2022-10-10T11:54:54.632Z,100425.56
2022-10-10T11:56:03.076Z,100425.25
2022-10-10T11:57:16.624Z,100428.88
2022-10-10T11:58:25.347Z,100427.53
2022-10-10T11:59:36.884Z,100431.13
2022-10-10T12:00:56.101Z,100425.56
2022-10-10T12:02:02.118Z,100419.16
2022-10-10T12:03:04.337Z,100414.94
2022-10-10T12:04:06.584Z,100414.09
2022-10-10T12:05:29.553Z,100417.41
2022-10-10T12:06:44.601Z,100416.56
2022-10-10T12:08:03.708Z,100416.28
2022-10-10T12:09:15.406Z,100416.28
2022-10-10T12:10:39.523Z,100414.00
2022-10-10T12:12:02.887Z,100409.78
2022-10-10T12:13:18.170Z,100423.41
2022-10-10T12:14:23.014Z,100414.53
2022-10-10T12:15:41.335Z,100407.53
2022-10-10T12:16:46.940Z,100406.38
2022-10-10T12:17:49.215Z,100404.41
2022-10-10T12:19:17.466Z,100405.22
2022-10-10T12:20:25.682Z,100404.94
2022-10-10T12:21:30.639Z,100406.59
2022-10-10T12:22:32.979Z,100408.25
2022-10-10T12:23:36.108Z,100410.72
2022-10-10T12:25:07.489Z,100407.94
2022-10-10T12:26:19.701Z,100404.03
2022-10-10T12:27:42.653Z,100400.91
2022-10-10T12:29:06.629Z,100402.91
2022-10-10T12:30:09.219Z,100400.91
2022-10-10T12:31:11.416Z,100408.47
2022-10-10T12:32:13.675Z,100398.13
2022-10-10T12:33:20.898Z,100398.97
2022-10-10T12:34:56.322Z,100398.66
2022-10-10T12:36:20.496Z,100404.75
2022-10-10T12:37:34.655Z,100395.78
2022-10-10T12:38:36.914Z,100401.06
2022-10-10T12:40:00.007Z,100400.25
2022-10-10T12:41:10.024Z,100403.22
2022-10-10T12:42:50.713Z,100408.50
2022-10-10T12:44:14.591Z,100401.28
2022-10-10T12:45:29.245Z,100398.19
2022-10-10T12:46:33.407Z,100397.91
2022-10-10T12:48:04.568Z,100393.41
2022-10-10T12:49:18.572Z,100384.75
2022-10-10T12:50:40.569Z,100382.81
2022-10-10T12:51:44.661Z,100385.28
2022-10-10T12:52:51.437Z,100383.31
2022-10-10T12:53:57.039Z,100375.47
2022-10-10T12:55:07.800Z,100382.19
2022-10-10T12:56:12.888Z,100379.91
2022-10-10T12:57:25.579Z,100383.53
2022-10-10T12:58:39.471Z,100378.78
2022-10-10T12:59:42.175Z,100382.94